sensor_id;sensor_type;location;lat;lon;timestamp;P1;durP1;ratioP1;P2;durP2;ratioP2
44824;SDS011;30542;47.928;2.138;2023-02-21T00:04:23;1.90;;;1.45;;
44824;SDS011;30542;47.928;2.138;2023-02-21T00:09:42;1.77;;;1.20;;
44824;SDS011;30542;47.928;2.138;2023-02-21T00:15:01;2.50;;;1.17;;
44824;SDS011;30542;47.928;2.138;2023-02-21T00:20:19;2.08;;;1.40;;
44824;SDS011;30542;47.928;2.138;2023-02-21T00:25:38;2.47;;;0.90;;
44824;SDS011;30542;47.928;2.138;2023-02-21T00:30:57;1.38;;;1.13;;
44824;SDS011;30542;47.928;2.138;2023-02-21T00:36:16;2.03;;;1.33;;
44824;SDS011;30542;47.928;2.138;2023-02-21T00:41:35;2.45;;;1.25;;
44824;SDS011;30542;47.928;2.138;2023-02-21T00:46:54;2.30;;;1.55;;
44824;SDS011;30542;47.928;2.138;2023-02-21T00:52:13;1.67;;;0.90;;
44824;SDS011;30542;47.928;2.138;2023-02-21T00:57:32;1.67;;;1.27;;
44824;SDS011;30542;47.928;2.138;2023-02-21T01:02:50;1.60;;;1.05;;
44824;SDS011;30542;47.928;2.138;2023-02-21T01:08:10;1.65;;;1.30;;
44824;SDS011;30542;47.928;2.138;2023-02-21T01:13:28;2.10;;;1.35;;
44824;SDS011;30542;47.928;2.138;2023-02-21T01:18:47;1.40;;;1.30;;
44824;SDS011;30542;47.928;2.138;2023-02-21T01:24:06;1.95;;;1.40;;
44824;SDS011;30542;47.928;2.138;2023-02-21T01:29:28;1.75;;;1.25;;
44824;SDS011;30542;47.928;2.138;2023-02-21T01:34:47;2.28;;;1.40;;
44824;SDS011;30542;47.928;2.138;2023-02-21T01:40:06;1.70;;;1.30;;
44824;SDS011;30542;47.928;2.138;2023-02-21T01:50:57;2.45;;;1.40;;
44824;SDS011;30542;47.928;2.138;2023-02-21T01:56:17;1.88;;;1.20;;
44824;SDS011;30542;47.928;2.138;2023-02-21T02:01:41;2.15;;;1.30;;
44824;SDS011;30542;47.928;2.138;2023-02-21T02:07:07;1.40;;;1.10;;
44824;SDS011;30542;47.928;2.138;2023-02-21T02:12:35;1.73;;;1.38;;
44824;SDS011;30542;47.928;2.138;2023-02-21T02:44:01;1.60;;;1.35;;
44824;SDS011;30542;47.928;2.138;2023-02-21T02:49:17;2.20;;;1.30;;
44824;SDS011;30542;47.928;2.138;2023-02-21T02:54:20;1.65;;;1.48;;
44824;SDS011;30542;47.928;2.138;2023-02-21T02:59:22;2.15;;;1.50;;
44824;SDS011;30542;47.928;2.138;2023-02-21T03:20:24;1.73;;;1.30;;
44824;SDS011;30542;47.928;2.138;2023-02-21T03:25:27;1.83;;;1.30;;
44824;SDS011;30542;47.928;2.138;2023-02-21T03:30:31;1.77;;;1.50;;
44824;SDS011;30542;47.928;2.138;2023-02-21T03:35:32;2.05;;;1.40;;
44824;SDS011;30542;47.928;2.138;2023-02-21T03:40:32;2.13;;;1.63;;
44824;SDS011;30542;47.928;2.138;2023-02-21T03:45:34;1.23;;;1.13;;
44824;SDS011;30542;47.928;2.138;2023-02-21T03:50:35;2.03;;;1.38;;
44824;SDS011;30542;47.928;2.138;2023-02-21T03:55:35;1.40;;;1.15;;
44824;SDS011;30542;47.928;2.138;2023-02-21T04:00:36;1.42;;;1.30;;
44824;SDS011;30542;47.928;2.138;2023-02-21T04:05:36;1.87;;;1.60;;
44824;SDS011;30542;47.928;2.138;2023-02-21T04:10:37;1.63;;;0.90;;
44824;SDS011;30542;47.928;2.138;2023-02-21T04:15:37;1.37;;;0.93;;
44824;SDS011;30542;47.928;2.138;2023-02-21T04:20:37;2.07;;;1.20;;
44824;SDS011;30542;47.928;2.138;2023-02-21T04:25:38;1.70;;;1.13;;
44824;SDS011;30542;47.928;2.138;2023-02-21T04:30:38;2.00;;;1.27;;
44824;SDS011;30542;47.928;2.138;2023-02-21T04:35:38;2.33;;;1.43;;
44824;SDS011;30542;47.928;2.138;2023-02-21T04:40:39;1.80;;;1.30;;
44824;SDS011;30542;47.928;2.138;2023-02-21T04:45:39;1.50;;;1.40;;
44824;SDS011;30542;47.928;2.138;2023-02-21T04:50:39;1.57;;;1.20;;
44824;SDS011;30542;47.928;2.138;2023-02-21T04:55:40;2.10;;;1.20;;
44824;SDS011;30542;47.928;2.138;2023-02-21T05:00:40;1.37;;;1.27;;
44824;SDS011;30542;47.928;2.138;2023-02-21T05:05:41;1.30;;;1.20;;
44824;SDS011;30542;47.928;2.138;2023-02-21T05:10:41;1.73;;;1.53;;
44824;SDS011;30542;47.928;2.138;2023-02-21T05:15:41;1.20;;;0.83;;
44824;SDS011;30542;47.928;2.138;2023-02-21T05:20:42;1.40;;;1.10;;
44824;SDS011;30542;47.928;2.138;2023-02-21T05:25:42;1.50;;;1.03;;
44824;SDS011;30542;47.928;2.138;2023-02-21T05:30:43;5.63;;;1.40;;
44824;SDS011;30542;47.928;2.138;2023-02-21T05:35:43;4.67;;;2.47;;
44824;SDS011;30542;47.928;2.138;2023-02-21T05:40:46;3.25;;;1.88;;
44824;SDS011;30542;47.928;2.138;2023-02-21T05:45:47;4.90;;;1.83;;
44824;SDS011;30542;47.928;2.138;2023-02-21T05:50:47;2.63;;;1.83;;
44824;SDS011;30542;47.928;2.138;2023-02-21T05:55:47;2.90;;;1.60;;
44824;SDS011;30542;47.928;2.138;2023-02-21T06:00:48;3.50;;;2.00;;
44824;SDS011;30542;47.928;2.138;2023-02-21T06:05:50;2.50;;;2.10;;
44824;SDS011;30542;47.928;2.138;2023-02-21T06:10:50;18.10;;;5.70;;
44824;SDS011;30542;47.928;2.138;2023-02-21T06:15:50;18.63;;;6.27;;
44824;SDS011;30542;47.928;2.138;2023-02-21T06:20:51;19.70;;;6.87;;
44824;SDS011;30542;47.928;2.138;2023-02-21T06:25:51;17.17;;;6.13;;
44824;SDS011;30542;47.928;2.138;2023-02-21T06:30:51;14.97;;;6.20;;
44824;SDS011;30542;47.928;2.138;2023-02-21T06:35:52;18.13;;;5.60;;
44824;SDS011;30542;47.928;2.138;2023-02-21T06:40:52;14.93;;;5.68;;
44824;SDS011;30542;47.928;2.138;2023-02-21T06:45:53;11.43;;;5.10;;
44824;SDS011;30542;47.928;2.138;2023-02-21T06:50:53;11.27;;;5.50;;
44824;SDS011;30542;47.928;2.138;2023-02-21T06:55:53;10.20;;;4.93;;
44824;SDS011;30542;47.928;2.138;2023-02-21T07:00:54;12.33;;;4.87;;
44824;SDS011;30542;47.928;2.138;2023-02-21T07:05:54;9.90;;;4.57;;
44824;SDS011;30542;47.928;2.138;2023-02-21T07:10:54;10.27;;;4.40;;
44824;SDS011;30542;47.928;2.138;2023-02-21T07:15:55;9.18;;;4.50;;
44824;SDS011;30542;47.928;2.138;2023-02-21T07:20:56;7.47;;;4.13;;
44824;SDS011;30542;47.928;2.138;2023-02-21T07:25:56;7.40;;;4.03;;
44824;SDS011;30542;47.928;2.138;2023-02-21T07:30:57;11.53;;;4.03;;
44824;SDS011;30542;47.928;2.138;2023-02-21T07:35:57;17.70;;;5.80;;
44824;SDS011;30542;47.928;2.138;2023-02-21T07:40:58;19.47;;;6.33;;
44824;SDS011;30542;47.928;2.138;2023-02-21T07:46:00;13.93;;;5.95;;
44824;SDS011;30542;47.928;2.138;2023-02-21T07:51:01;22.42;;;5.90;;
44824;SDS011;30542;47.928;2.138;2023-02-21T07:56:02;12.00;;;4.60;;
44824;SDS011;30542;47.928;2.138;2023-02-21T08:01:06;16.48;;;5.13;;
44824;SDS011;30542;47.928;2.138;2023-02-21T08:06:07;13.45;;;4.78;;
44824;SDS011;30542;47.928;2.138;2023-02-21T08:11:09;12.90;;;4.70;;
44824;SDS011;30542;47.928;2.138;2023-02-21T08:16:12;11.75;;;5.07;;
44824;SDS011;30542;47.928;2.138;2023-02-21T08:21:13;10.60;;;4.22;;
44824;SDS011;30542;47.928;2.138;2023-02-21T08:26:13;9.93;;;4.03;;
44824;SDS011;30542;47.928;2.138;2023-02-21T08:31:13;9.47;;;3.87;;
44824;SDS011;30542;47.928;2.138;2023-02-21T08:36:14;8.47;;;4.50;;
44824;SDS011;30542;47.928;2.138;2023-02-21T08:41:14;9.97;;;3.60;;
44824;SDS011;30542;47.928;2.138;2023-02-21T08:46:14;10.10;;;4.50;;
44824;SDS011;30542;47.928;2.138;2023-02-21T08:51:15;7.70;;;3.87;;
44824;SDS011;30542;47.928;2.138;2023-02-21T08:56:19;8.73;;;3.90;;
44824;SDS011;30542;47.928;2.138;2023-02-21T09:01:21;7.85;;;3.55;;
44824;SDS011;30542;47.928;2.138;2023-02-21T09:06:22;8.00;;;3.55;;
44824;SDS011;30542;47.928;2.138;2023-02-21T09:11:23;8.00;;;3.72;;
44824;SDS011;30542;47.928;2.138;2023-02-21T09:16:23;7.27;;;3.23;;
44824;SDS011;30542;47.928;2.138;2023-02-21T09:21:24;6.32;;;2.95;;
44824;SDS011;30542;47.928;2.138;2023-02-21T09:26:24;9.25;;;3.80;;
44824;SDS011;30542;47.928;2.138;2023-02-21T09:31:25;5.57;;;2.95;;
44824;SDS011;30542;47.928;2.138;2023-02-21T09:36:25;5.37;;;2.87;;
44824;SDS011;30542;47.928;2.138;2023-02-21T09:41:25;6.20;;;3.10;;
44824;SDS011;30542;47.928;2.138;2023-02-21T09:46:47;6.10;;;2.40;;
44824;SDS011;30542;47.928;2.138;2023-02-21T09:51:48;5.80;;;2.72;;
44824;SDS011;30542;47.928;2.138;2023-02-21T09:56:50;6.57;;;2.85;;
44824;SDS011;30542;47.928;2.138;2023-02-21T10:07:13;3.63;;;2.30;;
44824;SDS011;30542;47.928;2.138;2023-02-21T10:12:33;5.28;;;2.20;;
44824;SDS011;30542;47.928;2.138;2023-02-21T10:22:48;4.30;;;2.53;;
44824;SDS011;30542;47.928;2.138;2023-02-21T10:27:51;3.60;;;2.03;;
44824;SDS011;30542;47.928;2.138;2023-02-21T10:32:52;5.88;;;2.10;;
44824;SDS011;30542;47.928;2.138;2023-02-21T10:37:55;4.53;;;2.15;;
44824;SDS011;30542;47.928;2.138;2023-02-21T10:43:03;5.15;;;2.50;;
44824;SDS011;30542;47.928;2.138;2023-02-21T10:48:09;4.10;;;2.42;;
44824;SDS011;30542;47.928;2.138;2023-02-21T10:53:45;3.75;;;2.15;;
44824;SDS011;30542;47.928;2.138;2023-02-21T11:04:05;3.65;;;1.70;;
44824;SDS011;30542;47.928;2.138;2023-02-21T11:25:03;3.37;;;2.20;;
44824;SDS011;30542;47.928;2.138;2023-02-21T11:30:15;2.75;;;1.80;;
44824;SDS011;30542;47.928;2.138;2023-02-21T11:40:22;1.97;;;1.53;;
44824;SDS011;30542;47.928;2.138;2023-02-21T11:45:26;1.85;;;1.40;;
44824;SDS011;30542;47.928;2.138;2023-02-21T11:50:31;2.33;;;1.73;;
44824;SDS011;30542;47.928;2.138;2023-02-21T11:55:38;1.92;;;1.38;;
44824;SDS011;30542;47.928;2.138;2023-02-21T12:22:03;2.67;;;1.40;;
44824;SDS011;30542;47.928;2.138;2023-02-21T12:32:50;3.17;;;1.90;;
44824;SDS011;30542;47.928;2.138;2023-02-21T12:38:02;1.70;;;1.20;;
44824;SDS011;30542;47.928;2.138;2023-02-21T12:43:10;3.33;;;1.33;;
44824;SDS011;30542;47.928;2.138;2023-02-21T12:48:28;1.70;;;1.13;;
44824;SDS011;30542;47.928;2.138;2023-02-21T12:53:44;1.47;;;0.93;;
44824;SDS011;30542;47.928;2.138;2023-02-21T13:09:21;2.55;;;1.48;;
44824;SDS011;30542;47.928;2.138;2023-02-21T13:14:32;1.88;;;1.15;;
44824;SDS011;30542;47.928;2.138;2023-02-21T13:19:53;2.60;;;1.20;;
44824;SDS011;30542;47.928;2.138;2023-02-21T13:25:15;2.67;;;1.35;;
44824;SDS011;30542;47.928;2.138;2023-02-21T13:30:22;2.05;;;1.45;;
44824;SDS011;30542;47.928;2.138;2023-02-21T13:35:32;1.98;;;1.40;;
44824;SDS011;30542;47.928;2.138;2023-02-21T13:40:44;1.60;;;1.10;;
44824;SDS011;30542;47.928;2.138;2023-02-21T13:45:51;2.42;;;1.38;;
44824;SDS011;30542;47.928;2.138;2023-02-21T13:50:53;1.87;;;1.30;;
44824;SDS011;30542;47.928;2.138;2023-02-21T13:56:11;2.50;;;1.27;;
44824;SDS011;30542;47.928;2.138;2023-02-21T14:01:20;1.73;;;0.95;;
44824;SDS011;30542;47.928;2.138;2023-02-21T14:06:38;1.42;;;1.13;;
44824;SDS011;30542;47.928;2.138;2023-02-21T14:11:55;2.47;;;1.38;;
44824;SDS011;30542;47.928;2.138;2023-02-21T14:17:04;2.83;;;1.00;;
44824;SDS011;30542;47.928;2.138;2023-02-21T14:22:15;1.48;;;1.13;;
44824;SDS011;30542;47.928;2.138;2023-02-21T14:37:39;2.25;;;1.15;;
44824;SDS011;30542;47.928;2.138;2023-02-21T14:42:58;2.05;;;0.98;;
44824;SDS011;30542;47.928;2.138;2023-02-21T15:04:42;1.70;;;1.20;;
44824;SDS011;30542;47.928;2.138;2023-02-21T15:15:26;1.40;;;1.10;;
44824;SDS011;30542;47.928;2.138;2023-02-21T15:20:29;1.20;;;0.80;;
44824;SDS011;30542;47.928;2.138;2023-02-21T15:25:32;1.65;;;1.02;;
44824;SDS011;30542;47.928;2.138;2023-02-21T15:30:37;2.83;;;1.10;;
44824;SDS011;30542;47.928;2.138;2023-02-21T15:35:44;1.38;;;1.00;;
44824;SDS011;30542;47.928;2.138;2023-02-21T15:40:51;1.50;;;0.88;;
44824;SDS011;30542;47.928;2.138;2023-02-21T15:45:55;1.00;;;0.90;;
44824;SDS011;30542;47.928;2.138;2023-02-21T15:51:00;1.00;;;0.90;;
44824;SDS011;30542;47.928;2.138;2023-02-21T15:56:20;1.10;;;0.73;;
44824;SDS011;30542;47.928;2.138;2023-02-21T16:01:23;0.93;;;0.70;;
44824;SDS011;30542;47.928;2.138;2023-02-21T16:06:29;1.33;;;0.80;;
44824;SDS011;30542;47.928;2.138;2023-02-21T16:11:42;1.35;;;1.00;;
44824;SDS011;30542;47.928;2.138;2023-02-21T16:16:45;1.88;;;0.98;;
44824;SDS011;30542;47.928;2.138;2023-02-21T16:22:08;1.23;;;0.87;;
44824;SDS011;30542;47.928;2.138;2023-02-21T16:27:16;1.58;;;1.10;;
44824;SDS011;30542;47.928;2.138;2023-02-21T16:32:19;1.20;;;0.88;;
44824;SDS011;30542;47.928;2.138;2023-02-21T16:37:20;1.02;;;0.60;;
44824;SDS011;30542;47.928;2.138;2023-02-21T16:42:21;2.13;;;0.60;;
44824;SDS011;30542;47.928;2.138;2023-02-21T16:47:22;1.15;;;0.85;;
44824;SDS011;30542;47.928;2.138;2023-02-21T16:52:22;1.10;;;0.98;;
44824;SDS011;30542;47.928;2.138;2023-02-21T16:57:23;0.77;;;0.65;;
44824;SDS011;30542;47.928;2.138;2023-02-21T17:02:23;3.13;;;1.05;;
44824;SDS011;30542;47.928;2.138;2023-02-21T17:07:25;3.47;;;1.65;;
44824;SDS011;30542;47.928;2.138;2023-02-21T17:12:25;3.73;;;0.90;;
44824;SDS011;30542;47.928;2.138;2023-02-21T17:17:26;1.20;;;0.77;;
44824;SDS011;30542;47.928;2.138;2023-02-21T17:22:26;5.37;;;1.13;;
44824;SDS011;30542;47.928;2.138;2023-02-21T17:27:26;4.20;;;1.00;;
44824;SDS011;30542;47.928;2.138;2023-02-21T17:32:27;4.18;;;1.10;;
44824;SDS011;30542;47.928;2.138;2023-02-21T17:37:27;1.63;;;1.03;;
44824;SDS011;30542;47.928;2.138;2023-02-21T17:42:28;2.73;;;1.10;;
44824;SDS011;30542;47.928;2.138;2023-02-21T17:47:29;1.58;;;1.05;;
44824;SDS011;30542;47.928;2.138;2023-02-21T17:52:30;1.65;;;0.98;;
44824;SDS011;30542;47.928;2.138;2023-02-21T17:57:30;4.22;;;1.38;;
44824;SDS011;30542;47.928;2.138;2023-02-21T18:02:36;3.40;;;1.08;;
44824;SDS011;30542;47.928;2.138;2023-02-21T18:07:36;5.45;;;1.42;;
44824;SDS011;30542;47.928;2.138;2023-02-21T18:12:37;1.80;;;1.10;;
44824;SDS011;30542;47.928;2.138;2023-02-21T18:17:37;2.35;;;1.30;;
44824;SDS011;30542;47.928;2.138;2023-02-21T18:22:39;2.28;;;1.10;;
44824;SDS011;30542;47.928;2.138;2023-02-21T18:27:40;1.95;;;1.00;;
44824;SDS011;30542;47.928;2.138;2023-02-21T18:32:40;2.42;;;1.02;;
44824;SDS011;30542;47.928;2.138;2023-02-21T18:37:41;2.60;;;1.23;;
44824;SDS011;30542;47.928;2.138;2023-02-21T18:42:41;2.57;;;0.90;;
44824;SDS011;30542;47.928;2.138;2023-02-21T18:47:42;1.05;;;0.93;;
44824;SDS011;30542;47.928;2.138;2023-02-21T18:52:42;3.53;;;1.27;;
44824;SDS011;30542;47.928;2.138;2023-02-21T18:57:43;2.25;;;0.95;;
44824;SDS011;30542;47.928;2.138;2023-02-21T19:02:43;2.53;;;1.05;;
44824;SDS011;30542;47.928;2.138;2023-02-21T19:07:44;1.85;;;1.10;;
44824;SDS011;30542;47.928;2.138;2023-02-21T19:12:45;3.35;;;1.20;;
44824;SDS011;30542;47.928;2.138;2023-02-21T19:17:45;3.23;;;1.00;;
44824;SDS011;30542;47.928;2.138;2023-02-21T19:22:46;1.25;;;0.70;;
44824;SDS011;30542;47.928;2.138;2023-02-21T19:27:47;1.85;;;1.02;;
44824;SDS011;30542;47.928;2.138;2023-02-21T19:32:47;3.83;;;1.10;;
44824;SDS011;30542;47.928;2.138;2023-02-21T19:37:48;2.83;;;1.10;;
44824;SDS011;30542;47.928;2.138;2023-02-21T19:42:48;1.60;;;0.93;;
44824;SDS011;30542;47.928;2.138;2023-02-21T19:47:49;3.03;;;0.98;;
44824;SDS011;30542;47.928;2.138;2023-02-21T19:52:53;2.53;;;0.90;;
44824;SDS011;30542;47.928;2.138;2023-02-21T19:57:56;3.05;;;1.23;;
44824;SDS011;30542;47.928;2.138;2023-02-21T20:02:56;1.83;;;1.00;;
44824;SDS011;30542;47.928;2.138;2023-02-21T20:07:57;1.60;;;1.13;;
44824;SDS011;30542;47.928;2.138;2023-02-21T20:12:57;2.63;;;1.20;;
44824;SDS011;30542;47.928;2.138;2023-02-21T20:17:58;2.50;;;1.00;;
44824;SDS011;30542;47.928;2.138;2023-02-21T20:22:58;1.23;;;0.77;;
44824;SDS011;30542;47.928;2.138;2023-02-21T20:28:01;2.22;;;0.90;;
44824;SDS011;30542;47.928;2.138;2023-02-21T20:33:02;1.45;;;1.05;;
44824;SDS011;30542;47.928;2.138;2023-02-21T20:38:03;2.42;;;1.00;;
44824;SDS011;30542;47.928;2.138;2023-02-21T20:43:04;1.45;;;0.80;;
44824;SDS011;30542;47.928;2.138;2023-02-21T20:48:05;1.02;;;0.80;;
44824;SDS011;30542;47.928;2.138;2023-02-21T20:53:09;1.48;;;0.90;;
44824;SDS011;30542;47.928;2.138;2023-02-21T20:58:10;1.65;;;0.98;;
44824;SDS011;30542;47.928;2.138;2023-02-21T21:03:11;1.08;;;0.90;;
44824;SDS011;30542;47.928;2.138;2023-02-21T21:08:14;1.42;;;1.10;;
44824;SDS011;30542;47.928;2.138;2023-02-21T21:13:15;0.85;;;0.85;;
44824;SDS011;30542;47.928;2.138;2023-02-21T21:18:15;1.60;;;1.00;;
44824;SDS011;30542;47.928;2.138;2023-02-21T21:23:16;1.08;;;0.73;;
44824;SDS011;30542;47.928;2.138;2023-02-21T21:28:16;4.43;;;1.37;;
44824;SDS011;30542;47.928;2.138;2023-02-21T21:33:17;1.70;;;1.00;;
44824;SDS011;30542;47.928;2.138;2023-02-21T21:38:18;2.47;;;0.95;;
44824;SDS011;30542;47.928;2.138;2023-02-21T21:43:24;2.05;;;1.10;;
44824;SDS011;30542;47.928;2.138;2023-02-21T21:48:27;1.98;;;0.90;;
44824;SDS011;30542;47.928;2.138;2023-02-21T21:53:27;1.03;;;0.90;;
44824;SDS011;30542;47.928;2.138;2023-02-21T21:58:28;1.27;;;0.80;;
44824;SDS011;30542;47.928;2.138;2023-02-21T22:03:28;1.60;;;0.93;;
44824;SDS011;30542;47.928;2.138;2023-02-21T22:08:28;1.10;;;0.67;;
44824;SDS011;30542;47.928;2.138;2023-02-21T22:13:30;1.23;;;0.82;;
44824;SDS011;30542;47.928;2.138;2023-02-21T22:18:32;1.48;;;1.00;;
44824;SDS011;30542;47.928;2.138;2023-02-21T22:23:34;1.75;;;1.10;;
44824;SDS011;30542;47.928;2.138;2023-02-21T22:28:37;0.88;;;0.85;;
44824;SDS011;30542;47.928;2.138;2023-02-21T22:33:37;2.37;;;1.30;;
44824;SDS011;30542;47.928;2.138;2023-02-21T22:38:42;1.63;;;1.20;;
44824;SDS011;30542;47.928;2.138;2023-02-21T22:43:47;1.52;;;1.00;;
44824;SDS011;30542;47.928;2.138;2023-02-21T22:48:49;1.85;;;0.80;;
44824;SDS011;30542;47.928;2.138;2023-02-21T22:53:49;3.07;;;1.10;;
44824;SDS011;30542;47.928;2.138;2023-02-21T22:58:50;1.57;;;1.00;;
44824;SDS011;30542;47.928;2.138;2023-02-21T23:03:54;1.88;;;1.05;;
44824;SDS011;30542;47.928;2.138;2023-02-21T23:09:16;1.95;;;1.25;;
44824;SDS011;30542;47.928;2.138;2023-02-21T23:14:17;2.05;;;0.98;;
44824;SDS011;30542;47.928;2.138;2023-02-21T23:19:19;1.50;;;1.00;;
44824;SDS011;30542;47.928;2.138;2023-02-21T23:24:22;2.35;;;0.98;;
44824;SDS011;30542;47.928;2.138;2023-02-21T23:29:24;3.03;;;1.30;;
44824;SDS011;30542;47.928;2.138;2023-02-21T23:34:25;1.88;;;1.52;;
44824;SDS011;30542;47.928;2.138;2023-02-21T23:39:39;2.03;;;1.25;;
44824;SDS011;30542;47.928;2.138;2023-02-21T23:44:40;1.90;;;1.25;;
44824;SDS011;30542;47.928;2.138;2023-02-21T23:49:41;2.37;;;1.33;;
44824;SDS011;30542;47.928;2.138;2023-02-21T23:54:44;1.77;;;1.45;;
44824;SDS011;30542;47.928;2.138;2023-02-21T23:59:46;3.63;;;1.33;;
